sensor_id;sensor_type;location;lat;lon;timestamp;P1;durP1;ratioP1;P2;durP2;ratioP2
37851;SDS011;23691;52.486;4.650;2023-03-19T00:00:17;20.02;;;14.95;;
37851;SDS011;23691;52.486;4.650;2023-03-19T00:02:43;19.27;;;15.00;;
37851;SDS011;23691;52.486;4.650;2023-03-19T00:05:13;19.27;;;13.70;;
37851;SDS011;23691;52.486;4.650;2023-03-19T00:10:07;19.90;;;14.10;;
37851;SDS011;23691;52.486;4.650;2023-03-19T00:12:32;19.92;;;15.45;;
37851;SDS011;23691;52.486;4.650;2023-03-19T00:14:58;23.70;;;16.08;;
37851;SDS011;23691;52.486;4.650;2023-03-19T00:17:23;21.98;;;15.80;;
37851;SDS011;23691;52.486;4.650;2023-03-19T00:19:51;21.60;;;15.15;;
37851;SDS011;23691;52.486;4.650;2023-03-19T00:22:16;21.73;;;15.13;;
37851;SDS011;23691;52.486;4.650;2023-03-19T00:24:45;20.30;;;14.57;;
37851;SDS011;23691;52.486;4.650;2023-03-19T00:27:10;22.25;;;15.30;;
37851;SDS011;23691;52.486;4.650;2023-03-19T00:29:36;24.98;;;16.50;;
37851;SDS011;23691;52.486;4.650;2023-03-19T00:32:01;22.55;;;16.50;;
37851;SDS011;23691;52.486;4.650;2023-03-19T00:34:27;23.33;;;16.60;;
37851;SDS011;23691;52.486;4.650;2023-03-19T00:36:52;23.25;;;16.45;;
37851;SDS011;23691;52.486;4.650;2023-03-19T00:39:18;21.85;;;16.38;;
37851;SDS011;23691;52.486;4.650;2023-03-19T00:41:44;21.88;;;16.35;;
37851;SDS011;23691;52.486;4.650;2023-03-19T00:44:14;22.60;;;16.60;;
37851;SDS011;23691;52.486;4.650;2023-03-19T00:46:41;24.52;;;17.08;;
37851;SDS011;23691;52.486;4.650;2023-03-19T00:49:06;23.48;;;17.15;;
37851;SDS011;23691;52.486;4.650;2023-03-19T00:54:00;22.13;;;16.98;;
37851;SDS011;23691;52.486;4.650;2023-03-19T00:56:25;26.20;;;18.42;;
37851;SDS011;23691;52.486;4.650;2023-03-19T00:58:51;25.33;;;18.65;;
37851;SDS011;23691;52.486;4.650;2023-03-19T01:01:17;25.27;;;18.95;;
37851;SDS011;23691;52.486;4.650;2023-03-19T01:03:50;28.88;;;20.35;;
37851;SDS011;23691;52.486;4.650;2023-03-19T01:06:16;27.27;;;20.92;;
37851;SDS011;23691;52.486;4.650;2023-03-19T01:08:41;30.83;;;20.40;;
37851;SDS011;23691;52.486;4.650;2023-03-19T01:11:10;28.83;;;20.38;;
37851;SDS011;23691;52.486;4.650;2023-03-19T01:13:38;29.98;;;21.00;;
37851;SDS011;23691;52.486;4.650;2023-03-19T01:16:04;31.75;;;21.77;;
37851;SDS011;23691;52.486;4.650;2023-03-19T01:18:34;30.90;;;21.75;;
37851;SDS011;23691;52.486;4.650;2023-03-19T01:21:02;30.83;;;22.67;;
37851;SDS011;23691;52.486;4.650;2023-03-19T01:23:32;29.08;;;21.40;;
37851;SDS011;23691;52.486;4.650;2023-03-19T01:26:00;34.80;;;22.77;;
37851;SDS011;23691;52.486;4.650;2023-03-19T01:28:25;32.53;;;22.13;;
37851;SDS011;23691;52.486;4.650;2023-03-19T01:30:51;30.40;;;20.85;;
37851;SDS011;23691;52.486;4.650;2023-03-19T01:33:16;31.17;;;21.08;;
37851;SDS011;23691;52.486;4.650;2023-03-19T01:35:44;34.65;;;21.30;;
37851;SDS011;23691;52.486;4.650;2023-03-19T01:38:12;29.50;;;19.83;;
37851;SDS011;23691;52.486;4.650;2023-03-19T01:40:45;27.98;;;18.70;;
37851;SDS011;23691;52.486;4.650;2023-03-19T01:45:45;30.45;;;19.30;;
37851;SDS011;23691;52.486;4.650;2023-03-19T01:50:57;32.10;;;19.77;;
37851;SDS011;23691;52.486;4.650;2023-03-19T01:53:26;32.15;;;19.80;;
37851;SDS011;23691;52.486;4.650;2023-03-19T01:55:58;32.22;;;19.10;;
37851;SDS011;23691;52.486;4.650;2023-03-19T01:58:27;30.90;;;18.25;;
37851;SDS011;23691;52.486;4.650;2023-03-19T02:00:53;27.90;;;16.98;;
37851;SDS011;23691;52.486;4.650;2023-03-19T02:03:20;28.95;;;17.17;;
37851;SDS011;23691;52.486;4.650;2023-03-19T02:05:46;27.77;;;16.27;;
37851;SDS011;23691;52.486;4.650;2023-03-19T02:08:15;25.75;;;15.73;;
37851;SDS011;23691;52.486;4.650;2023-03-19T02:10:42;26.48;;;15.15;;
37851;SDS011;23691;52.486;4.650;2023-03-19T02:13:08;26.40;;;14.80;;
37851;SDS011;23691;52.486;4.650;2023-03-19T02:15:34;24.48;;;13.43;;
37851;SDS011;23691;52.486;4.650;2023-03-19T02:18:02;26.17;;;14.35;;
37851;SDS011;23691;52.486;4.650;2023-03-19T02:26:10;28.27;;;14.00;;
37851;SDS011;23691;52.486;4.650;2023-03-19T02:28:41;25.95;;;14.43;;
37851;SDS011;23691;52.486;4.650;2023-03-19T02:31:08;28.83;;;14.48;;
37851;SDS011;23691;52.486;4.650;2023-03-19T02:33:35;27.02;;;12.52;;
37851;SDS011;23691;52.486;4.650;2023-03-19T02:36:01;22.67;;;12.48;;
37851;SDS011;23691;52.486;4.650;2023-03-19T02:38:31;24.00;;;12.00;;
37851;SDS011;23691;52.486;4.650;2023-03-19T02:41:01;22.17;;;11.90;;
37851;SDS011;23691;52.486;4.650;2023-03-19T02:43:30;21.30;;;10.80;;
37851;SDS011;23691;52.486;4.650;2023-03-19T02:45:57;21.75;;;10.88;;
37851;SDS011;23691;52.486;4.650;2023-03-19T02:48:23;22.27;;;10.88;;
37851;SDS011;23691;52.486;4.650;2023-03-19T02:50:48;21.23;;;10.05;;
37851;SDS011;23691;52.486;4.650;2023-03-19T02:53:14;23.27;;;10.70;;
37851;SDS011;23691;52.486;4.650;2023-03-19T02:55:42;21.55;;;9.63;;
37851;SDS011;23691;52.486;4.650;2023-03-19T02:58:08;22.00;;;9.45;;
37851;SDS011;23691;52.486;4.650;2023-03-19T03:00:33;21.90;;;8.95;;
37851;SDS011;23691;52.486;4.650;2023-03-19T03:03:02;19.73;;;8.30;;
37851;SDS011;23691;52.486;4.650;2023-03-19T03:05:30;21.77;;;8.85;;
37851;SDS011;23691;52.486;4.650;2023-03-19T03:10:24;23.92;;;8.57;;
37851;SDS011;23691;52.486;4.650;2023-03-19T03:12:50;21.35;;;8.25;;
37851;SDS011;23691;52.486;4.650;2023-03-19T03:15:16;19.92;;;9.50;;
37851;SDS011;23691;52.486;4.650;2023-03-19T03:17:45;23.33;;;11.20;;
37851;SDS011;23691;52.486;4.650;2023-03-19T03:20:11;25.88;;;11.82;;
37851;SDS011;23691;52.486;4.650;2023-03-19T03:22:39;25.10;;;12.90;;
37851;SDS011;23691;52.486;4.650;2023-03-19T03:25:05;31.85;;;16.65;;
37851;SDS011;23691;52.486;4.650;2023-03-19T03:27:31;31.85;;;18.00;;
37851;SDS011;23691;52.486;4.650;2023-03-19T03:29:57;30.20;;;18.23;;
37851;SDS011;23691;52.486;4.650;2023-03-19T03:32:22;34.58;;;20.63;;
37851;SDS011;23691;52.486;4.650;2023-03-19T03:34:48;31.67;;;18.60;;
37851;SDS011;23691;52.486;4.650;2023-03-19T03:37:14;34.95;;;19.40;;
37851;SDS011;23691;52.486;4.650;2023-03-19T03:39:40;38.90;;;20.85;;
37851;SDS011;23691;52.486;4.650;2023-03-19T03:42:06;38.00;;;19.88;;
37851;SDS011;23691;52.486;4.650;2023-03-19T03:44:32;37.05;;;20.10;;
37851;SDS011;23691;52.486;4.650;2023-03-19T03:46:57;39.75;;;21.80;;
37851;SDS011;23691;52.486;4.650;2023-03-19T03:49:22;39.00;;;20.85;;
37851;SDS011;23691;52.486;4.650;2023-03-19T03:51:48;38.72;;;22.10;;
37851;SDS011;23691;52.486;4.650;2023-03-19T03:54:13;43.75;;;22.42;;
37851;SDS011;23691;52.486;4.650;2023-03-19T03:56:40;59.13;;;22.98;;
37851;SDS011;23691;52.486;4.650;2023-03-19T03:59:06;42.97;;;23.17;;
37851;SDS011;23691;52.486;4.650;2023-03-19T04:01:38;50.30;;;23.50;;
37851;SDS011;23691;52.486;4.650;2023-03-19T04:04:04;46.30;;;23.23;;
37851;SDS011;23691;52.486;4.650;2023-03-19T04:06:29;45.08;;;23.88;;
37851;SDS011;23691;52.486;4.650;2023-03-19T04:08:55;44.33;;;22.67;;
37851;SDS011;23691;52.486;4.650;2023-03-19T04:11:26;42.90;;;23.95;;
37851;SDS011;23691;52.486;4.650;2023-03-19T04:13:54;46.05;;;24.38;;
37851;SDS011;23691;52.486;4.650;2023-03-19T04:16:21;42.20;;;24.08;;
37851;SDS011;23691;52.486;4.650;2023-03-19T04:18:48;47.03;;;23.08;;
37851;SDS011;23691;52.486;4.650;2023-03-19T04:21:14;39.30;;;22.95;;
37851;SDS011;23691;52.486;4.650;2023-03-19T04:23:39;35.67;;;20.20;;
37851;SDS011;23691;52.486;4.650;2023-03-19T04:26:05;45.33;;;21.95;;
37851;SDS011;23691;52.486;4.650;2023-03-19T04:28:31;40.95;;;20.00;;
37851;SDS011;23691;52.486;4.650;2023-03-19T04:31:01;40.95;;;20.00;;
37851;SDS011;23691;52.486;4.650;2023-03-19T04:33:28;49.17;;;19.52;;
37851;SDS011;23691;52.486;4.650;2023-03-19T04:35:55;38.53;;;18.65;;
37851;SDS011;23691;52.486;4.650;2023-03-19T04:38:20;37.00;;;20.08;;
37851;SDS011;23691;52.486;4.650;2023-03-19T04:40:47;37.45;;;19.25;;
37851;SDS011;23691;52.486;4.650;2023-03-19T04:43:13;37.80;;;17.73;;
37851;SDS011;23691;52.486;4.650;2023-03-19T04:45:38;35.25;;;18.90;;
37851;SDS011;23691;52.486;4.650;2023-03-19T04:48:06;34.08;;;18.55;;
37851;SDS011;23691;52.486;4.650;2023-03-19T04:50:32;39.25;;;19.55;;
37851;SDS011;23691;52.486;4.650;2023-03-19T04:52:58;35.45;;;18.67;;
37851;SDS011;23691;52.486;4.650;2023-03-19T04:55:24;34.85;;;18.88;;
37851;SDS011;23691;52.486;4.650;2023-03-19T04:57:49;37.75;;;19.10;;
37851;SDS011;23691;52.486;4.650;2023-03-19T05:00:15;35.63;;;18.25;;
37851;SDS011;23691;52.486;4.650;2023-03-19T05:02:41;37.28;;;19.05;;
37851;SDS011;23691;52.486;4.650;2023-03-19T05:05:08;38.17;;;19.23;;
37851;SDS011;23691;52.486;4.650;2023-03-19T05:07:35;39.45;;;19.88;;
37851;SDS011;23691;52.486;4.650;2023-03-19T05:10:01;40.38;;;21.25;;
37851;SDS011;23691;52.486;4.650;2023-03-19T05:12:27;43.42;;;20.70;;
37851;SDS011;23691;52.486;4.650;2023-03-19T05:14:53;43.20;;;21.98;;
37851;SDS011;23691;52.486;4.650;2023-03-19T05:17:19;45.97;;;21.05;;
37851;SDS011;23691;52.486;4.650;2023-03-19T05:19:44;39.50;;;21.45;;
37851;SDS011;23691;52.486;4.650;2023-03-19T05:22:10;46.35;;;22.08;;
37851;SDS011;23691;52.486;4.650;2023-03-19T05:24:35;47.45;;;21.20;;
37851;SDS011;23691;52.486;4.650;2023-03-19T05:27:00;44.67;;;20.92;;
37851;SDS011;23691;52.486;4.650;2023-03-19T05:29:26;47.28;;;21.02;;
37851;SDS011;23691;52.486;4.650;2023-03-19T05:31:52;44.20;;;18.88;;
37851;SDS011;23691;52.486;4.650;2023-03-19T05:34:17;37.05;;;17.35;;
37851;SDS011;23691;52.486;4.650;2023-03-19T05:36:43;34.85;;;15.20;;
37851;SDS011;23691;52.486;4.650;2023-03-19T05:39:08;35.70;;;14.15;;
37851;SDS011;23691;52.486;4.650;2023-03-19T05:41:34;30.08;;;14.18;;
37851;SDS011;23691;52.486;4.650;2023-03-19T05:43:59;26.30;;;13.32;;
37851;SDS011;23691;52.486;4.650;2023-03-19T05:46:25;29.15;;;12.43;;
37851;SDS011;23691;52.486;4.650;2023-03-19T05:48:53;28.05;;;12.98;;
37851;SDS011;23691;52.486;4.650;2023-03-19T05:51:19;28.60;;;13.90;;
37851;SDS011;23691;52.486;4.650;2023-03-19T05:53:45;26.00;;;12.90;;
37851;SDS011;23691;52.486;4.650;2023-03-19T05:56:11;24.77;;;11.25;;
37851;SDS011;23691;52.486;4.650;2023-03-19T05:58:36;26.65;;;11.23;;
37851;SDS011;23691;52.486;4.650;2023-03-19T06:01:03;20.05;;;8.68;;
37851;SDS011;23691;52.486;4.650;2023-03-19T06:03:28;19.20;;;8.65;;
37851;SDS011;23691;52.486;4.650;2023-03-19T06:05:54;18.77;;;7.43;;
37851;SDS011;23691;52.486;4.650;2023-03-19T06:08:22;15.55;;;7.60;;
37851;SDS011;23691;52.486;4.650;2023-03-19T06:10:51;17.60;;;8.30;;
37851;SDS011;23691;52.486;4.650;2023-03-19T06:13:17;20.52;;;9.02;;
37851;SDS011;23691;52.486;4.650;2023-03-19T06:15:42;20.60;;;9.60;;
37851;SDS011;23691;52.486;4.650;2023-03-19T06:18:07;19.63;;;9.40;;
37851;SDS011;23691;52.486;4.650;2023-03-19T06:20:33;19.73;;;9.05;;
37851;SDS011;23691;52.486;4.650;2023-03-19T06:22:58;22.63;;;10.27;;
37851;SDS011;23691;52.486;4.650;2023-03-19T06:25:23;21.65;;;9.40;;
37851;SDS011;23691;52.486;4.650;2023-03-19T06:27:49;25.10;;;9.38;;
37851;SDS011;23691;52.486;4.650;2023-03-19T06:30:17;22.90;;;9.05;;
37851;SDS011;23691;52.486;4.650;2023-03-19T06:32:43;21.58;;;9.68;;
37851;SDS011;23691;52.486;4.650;2023-03-19T06:35:08;23.67;;;10.20;;
37851;SDS011;23691;52.486;4.650;2023-03-19T06:37:34;22.27;;;11.45;;
37851;SDS011;23691;52.486;4.650;2023-03-19T06:40:00;25.38;;;10.88;;
37851;SDS011;23691;52.486;4.650;2023-03-19T06:42:26;25.92;;;12.20;;
37851;SDS011;23691;52.486;4.650;2023-03-19T06:44:51;27.98;;;12.95;;
37851;SDS011;23691;52.486;4.650;2023-03-19T06:47:17;32.28;;;13.93;;
37851;SDS011;23691;52.486;4.650;2023-03-19T06:49:43;30.70;;;15.18;;
37851;SDS011;23691;52.486;4.650;2023-03-19T06:52:09;27.73;;;14.63;;
37851;SDS011;23691;52.486;4.650;2023-03-19T06:54:35;35.08;;;16.00;;
37851;SDS011;23691;52.486;4.650;2023-03-19T06:57:00;37.47;;;16.17;;
37851;SDS011;23691;52.486;4.650;2023-03-19T06:59:26;43.53;;;17.55;;
37851;SDS011;23691;52.486;4.650;2023-03-19T07:01:51;40.80;;;17.45;;
37851;SDS011;23691;52.486;4.650;2023-03-19T07:04:17;37.95;;;16.40;;
37851;SDS011;23691;52.486;4.650;2023-03-19T07:06:43;42.60;;;17.92;;
37851;SDS011;23691;52.486;4.650;2023-03-19T07:09:08;38.35;;;18.00;;
37851;SDS011;23691;52.486;4.650;2023-03-19T07:11:34;36.00;;;17.08;;
37851;SDS011;23691;52.486;4.650;2023-03-19T07:14:02;41.08;;;17.65;;
37851;SDS011;23691;52.486;4.650;2023-03-19T07:16:28;41.00;;;18.48;;
37851;SDS011;23691;52.486;4.650;2023-03-19T07:18:53;39.78;;;18.13;;
37851;SDS011;23691;52.486;4.650;2023-03-19T07:21:20;38.60;;;18.38;;
37851;SDS011;23691;52.486;4.650;2023-03-19T07:23:45;40.60;;;18.63;;
37851;SDS011;23691;52.486;4.650;2023-03-19T07:26:11;42.05;;;19.30;;
37851;SDS011;23691;52.486;4.650;2023-03-19T07:28:37;42.58;;;19.27;;
37851;SDS011;23691;52.486;4.650;2023-03-19T07:31:02;41.08;;;20.13;;
37851;SDS011;23691;52.486;4.650;2023-03-19T07:33:28;43.40;;;21.10;;
37851;SDS011;23691;52.486;4.650;2023-03-19T07:35:54;43.10;;;21.02;;
37851;SDS011;23691;52.486;4.650;2023-03-19T07:38:19;39.75;;;18.83;;
37851;SDS011;23691;52.486;4.650;2023-03-19T07:40:48;35.47;;;18.08;;
37851;SDS011;23691;52.486;4.650;2023-03-19T07:43:16;37.25;;;18.80;;
37851;SDS011;23691;52.486;4.650;2023-03-19T07:45:45;39.30;;;19.40;;
37851;SDS011;23691;52.486;4.650;2023-03-19T07:48:10;40.50;;;18.60;;
37851;SDS011;23691;52.486;4.650;2023-03-19T07:50:36;37.40;;;18.98;;
37851;SDS011;23691;52.486;4.650;2023-03-19T07:53:02;38.13;;;19.45;;
37851;SDS011;23691;52.486;4.650;2023-03-19T07:55:27;35.92;;;18.98;;
37851;SDS011;23691;52.486;4.650;2023-03-19T07:57:56;38.17;;;19.33;;
37851;SDS011;23691;52.486;4.650;2023-03-19T08:00:21;35.97;;;18.88;;
37851;SDS011;23691;52.486;4.650;2023-03-19T08:02:47;39.90;;;18.83;;
37851;SDS011;23691;52.486;4.650;2023-03-19T08:05:12;37.97;;;19.25;;
37851;SDS011;23691;52.486;4.650;2023-03-19T08:07:43;38.65;;;20.08;;
37851;SDS011;23691;52.486;4.650;2023-03-19T08:10:09;39.65;;;20.73;;
37851;SDS011;23691;52.486;4.650;2023-03-19T08:12:35;39.50;;;19.13;;
37851;SDS011;23691;52.486;4.650;2023-03-19T08:15:05;43.10;;;20.33;;
37851;SDS011;23691;52.486;4.650;2023-03-19T08:17:32;48.07;;;21.23;;
37851;SDS011;23691;52.486;4.650;2023-03-19T08:20:06;46.55;;;21.08;;
37851;SDS011;23691;52.486;4.650;2023-03-19T08:22:36;50.95;;;23.38;;
37851;SDS011;23691;52.486;4.650;2023-03-19T08:25:03;48.80;;;21.88;;
37851;SDS011;23691;52.486;4.650;2023-03-19T08:27:29;54.60;;;22.90;;
37851;SDS011;23691;52.486;4.650;2023-03-19T08:29:56;59.63;;;22.35;;
37851;SDS011;23691;52.486;4.650;2023-03-19T08:32:22;53.35;;;21.15;;
37851;SDS011;23691;52.486;4.650;2023-03-19T08:34:49;50.83;;;21.23;;
37851;SDS011;23691;52.486;4.650;2023-03-19T08:37:15;55.03;;;22.98;;
37851;SDS011;23691;52.486;4.650;2023-03-19T08:39:40;53.72;;;22.95;;
37851;SDS011;23691;52.486;4.650;2023-03-19T08:42:06;61.97;;;25.10;;
37851;SDS011;23691;52.486;4.650;2023-03-19T08:44:31;58.22;;;24.02;;
37851;SDS011;23691;52.486;4.650;2023-03-19T08:46:57;61.72;;;24.73;;
37851;SDS011;23691;52.486;4.650;2023-03-19T08:49:22;62.03;;;26.25;;
37851;SDS011;23691;52.486;4.650;2023-03-19T08:51:47;60.75;;;24.35;;
37851;SDS011;23691;52.486;4.650;2023-03-19T08:54:13;57.13;;;24.50;;
37851;SDS011;23691;52.486;4.650;2023-03-19T08:56:39;62.58;;;25.65;;
37851;SDS011;23691;52.486;4.650;2023-03-19T08:59:04;65.85;;;25.70;;
37851;SDS011;23691;52.486;4.650;2023-03-19T09:01:30;62.45;;;25.30;;
37851;SDS011;23691;52.486;4.650;2023-03-19T09:03:56;65.95;;;25.60;;
37851;SDS011;23691;52.486;4.650;2023-03-19T09:06:21;60.78;;;25.13;;
37851;SDS011;23691;52.486;4.650;2023-03-19T09:08:47;62.15;;;25.17;;
37851;SDS011;23691;52.486;4.650;2023-03-19T09:11:12;67.15;;;27.05;;
37851;SDS011;23691;52.486;4.650;2023-03-19T09:13:42;66.55;;;26.35;;
37851;SDS011;23691;52.486;4.650;2023-03-19T09:16:07;58.20;;;24.67;;
37851;SDS011;23691;52.486;4.650;2023-03-19T09:18:33;59.75;;;24.25;;
37851;SDS011;23691;52.486;4.650;2023-03-19T09:20:59;65.53;;;25.13;;
37851;SDS011;23691;52.486;4.650;2023-03-19T09:23:24;62.90;;;25.60;;
37851;SDS011;23691;52.486;4.650;2023-03-19T09:25:50;62.08;;;25.58;;
37851;SDS011;23691;52.486;4.650;2023-03-19T09:28:16;60.70;;;23.88;;
37851;SDS011;23691;52.486;4.650;2023-03-19T09:30:44;58.65;;;24.27;;
37851;SDS011;23691;52.486;4.650;2023-03-19T09:33:11;65.57;;;24.55;;
37851;SDS011;23691;52.486;4.650;2023-03-19T09:35:38;66.25;;;25.00;;
37851;SDS011;23691;52.486;4.650;2023-03-19T09:38:04;67.90;;;25.45;;
37851;SDS011;23691;52.486;4.650;2023-03-19T09:40:43;63.53;;;24.52;;
37851;SDS011;23691;52.486;4.650;2023-03-19T09:45:58;65.63;;;24.60;;
37851;SDS011;23691;52.486;4.650;2023-03-19T09:48:32;68.55;;;24.67;;
37851;SDS011;23691;52.486;4.650;2023-03-19T09:51:09;69.97;;;24.95;;
37851;SDS011;23691;52.486;4.650;2023-03-19T09:54:00;66.95;;;24.25;;
37851;SDS011;23691;52.486;4.650;2023-03-19T09:56:31;64.25;;;24.23;;
37851;SDS011;23691;52.486;4.650;2023-03-19T09:58:57;63.15;;;23.98;;
37851;SDS011;23691;52.486;4.650;2023-03-19T10:01:26;68.60;;;26.10;;
37851;SDS011;23691;52.486;4.650;2023-03-19T10:06:41;73.43;;;27.02;;
37851;SDS011;23691;52.486;4.650;2023-03-19T10:17:20;64.18;;;23.15;;
37851;SDS011;23691;52.486;4.650;2023-03-19T10:19:57;67.45;;;24.55;;
37851;SDS011;23691;52.486;4.650;2023-03-19T10:22:48;69.63;;;25.00;;
37851;SDS011;23691;52.486;4.650;2023-03-19T10:25:35;66.72;;;24.05;;
37851;SDS011;23691;52.486;4.650;2023-03-19T10:28:13;66.50;;;23.77;;
37851;SDS011;23691;52.486;4.650;2023-03-19T10:30:41;57.40;;;21.63;;
37851;SDS011;23691;52.486;4.650;2023-03-19T10:33:13;54.58;;;21.95;;
37851;SDS011;23691;52.486;4.650;2023-03-19T10:35:46;59.92;;;22.17;;
37851;SDS011;23691;52.486;4.650;2023-03-19T10:38:20;55.47;;;21.00;;
37851;SDS011;23691;52.486;4.650;2023-03-19T10:40:54;60.00;;;22.75;;
37851;SDS011;23691;52.486;4.650;2023-03-19T10:43:29;59.13;;;21.75;;
37851;SDS011;23691;52.486;4.650;2023-03-19T10:45:56;65.13;;;24.02;;
37851;SDS011;23691;52.486;4.650;2023-03-19T10:48:23;60.03;;;21.23;;
37851;SDS011;23691;52.486;4.650;2023-03-19T10:55:43;59.00;;;21.03;;
37851;SDS011;23691;52.486;4.650;2023-03-19T10:58:18;58.15;;;21.38;;
37851;SDS011;23691;52.486;4.650;2023-03-19T11:00:45;63.83;;;22.35;;
37851;SDS011;23691;52.486;4.650;2023-03-19T11:03:32;68.72;;;23.42;;
37851;SDS011;23691;52.486;4.650;2023-03-19T11:11:23;68.70;;;21.67;;
37851;SDS011;23691;52.486;4.650;2023-03-19T11:13:50;65.72;;;21.63;;
37851;SDS011;23691;52.486;4.650;2023-03-19T11:16:16;78.00;;;22.35;;
37851;SDS011;23691;52.486;4.650;2023-03-19T11:18:42;78.15;;;23.52;;
37851;SDS011;23691;52.486;4.650;2023-03-19T11:23:52;69.30;;;21.45;;
37851;SDS011;23691;52.486;4.650;2023-03-19T11:26:23;71.60;;;22.27;;
37851;SDS011;23691;52.486;4.650;2023-03-19T11:28:52;69.88;;;22.10;;
37851;SDS011;23691;52.486;4.650;2023-03-19T11:31:26;70.13;;;22.42;;
37851;SDS011;23691;52.486;4.650;2023-03-19T11:47:30;51.95;;;17.58;;
37851;SDS011;23691;52.486;4.650;2023-03-19T11:52:57;53.95;;;18.67;;
37851;SDS011;23691;52.486;4.650;2023-03-19T11:55:42;50.58;;;16.48;;
37851;SDS011;23691;52.486;4.650;2023-03-19T11:58:36;51.10;;;17.70;;
37851;SDS011;23691;52.486;4.650;2023-03-19T12:01:32;50.80;;;17.67;;
37851;SDS011;23691;52.486;4.650;2023-03-19T12:09:51;57.08;;;17.73;;
37851;SDS011;23691;52.486;4.650;2023-03-19T12:12:32;52.58;;;16.85;;
37851;SDS011;23691;52.486;4.650;2023-03-19T12:15:08;59.35;;;17.13;;
37851;SDS011;23691;52.486;4.650;2023-03-19T12:20:35;51.17;;;16.15;;
37851;SDS011;23691;52.486;4.650;2023-03-19T12:28:22;51.17;;;16.83;;
37851;SDS011;23691;52.486;4.650;2023-03-19T12:36:19;52.50;;;15.98;;
37851;SDS011;23691;52.486;4.650;2023-03-19T12:38:50;54.10;;;18.50;;
37851;SDS011;23691;52.486;4.650;2023-03-19T12:41:22;61.13;;;19.35;;
37851;SDS011;23691;52.486;4.650;2023-03-19T12:46:30;51.50;;;17.85;;
37851;SDS011;23691;52.486;4.650;2023-03-19T12:49:05;48.28;;;17.23;;
37851;SDS011;23691;52.486;4.650;2023-03-19T12:51:37;42.22;;;15.77;;
37851;SDS011;23691;52.486;4.650;2023-03-19T12:56:55;40.72;;;15.55;;
37851;SDS011;23691;52.486;4.650;2023-03-19T13:02:23;34.28;;;13.13;;
37851;SDS011;23691;52.486;4.650;2023-03-19T13:05:35;31.45;;;12.50;;
37851;SDS011;23691;52.486;4.650;2023-03-19T13:11:17;30.80;;;12.15;;
37851;SDS011;23691;52.486;4.650;2023-03-19T13:13:55;30.73;;;12.80;;
37851;SDS011;23691;52.486;4.650;2023-03-19T13:21:25;31.02;;;14.57;;
37851;SDS011;23691;52.486;4.650;2023-03-19T13:24:11;33.58;;;14.73;;
37851;SDS011;23691;52.486;4.650;2023-03-19T13:26:43;31.77;;;15.05;;
37851;SDS011;23691;52.486;4.650;2023-03-19T13:32:24;29.20;;;12.63;;
37851;SDS011;23691;52.486;4.650;2023-03-19T13:37:47;24.30;;;12.75;;
37851;SDS011;23691;52.486;4.650;2023-03-19T13:46:02;20.17;;;9.25;;
37851;SDS011;23691;52.486;4.650;2023-03-19T13:59:37;25.73;;;12.35;;
37851;SDS011;23691;52.486;4.650;2023-03-19T14:02:47;22.10;;;10.70;;
37851;SDS011;23691;52.486;4.650;2023-03-19T14:07:19;24.92;;;11.57;;
37851;SDS011;23691;52.486;4.650;2023-03-19T14:09:48;27.75;;;13.63;;
37851;SDS011;23691;52.486;4.650;2023-03-19T14:12:35;26.20;;;12.30;;
37851;SDS011;23691;52.486;4.650;2023-03-19T14:17:35;24.63;;;11.68;;
37851;SDS011;23691;52.486;4.650;2023-03-19T14:22:52;38.00;;;12.88;;
37851;SDS011;23691;52.486;4.650;2023-03-19T14:29:27;39.33;;;13.65;;
37851;SDS011;23691;52.486;4.650;2023-03-19T14:38:53;36.47;;;14.98;;
37851;SDS011;23691;52.486;4.650;2023-03-19T14:41:22;35.70;;;15.35;;
37851;SDS011;23691;52.486;4.650;2023-03-19T14:56:21;44.85;;;17.38;;
37851;SDS011;23691;52.486;4.650;2023-03-19T14:58:54;52.17;;;21.23;;
37851;SDS011;23691;52.486;4.650;2023-03-19T15:01:24;46.60;;;18.65;;
37851;SDS011;23691;52.486;4.650;2023-03-19T15:03:55;46.03;;;17.35;;
37851;SDS011;23691;52.486;4.650;2023-03-19T15:06:23;43.47;;;17.40;;
37851;SDS011;23691;52.486;4.650;2023-03-19T15:08:50;49.60;;;17.35;;
37851;SDS011;23691;52.486;4.650;2023-03-19T15:19:30;43.22;;;17.25;;
37851;SDS011;23691;52.486;4.650;2023-03-19T15:24:34;37.85;;;16.13;;
37851;SDS011;23691;52.486;4.650;2023-03-19T15:27:00;39.22;;;15.60;;
37851;SDS011;23691;52.486;4.650;2023-03-19T15:29:32;41.10;;;15.05;;
37851;SDS011;23691;52.486;4.650;2023-03-19T15:31:59;39.97;;;15.70;;
37851;SDS011;23691;52.486;4.650;2023-03-19T15:34:25;36.22;;;15.60;;
37851;SDS011;23691;52.486;4.650;2023-03-19T15:37:13;34.93;;;15.23;;
37851;SDS011;23691;52.486;4.650;2023-03-19T15:39:48;36.83;;;14.90;;
37851;SDS011;23691;52.486;4.650;2023-03-19T15:42:18;36.53;;;13.63;;
37851;SDS011;23691;52.486;4.650;2023-03-19T15:47:23;27.80;;;11.97;;
37851;SDS011;23691;52.486;4.650;2023-03-19T15:52:29;22.88;;;10.10;;
37851;SDS011;23691;52.486;4.650;2023-03-19T15:54:58;20.38;;;8.95;;
37851;SDS011;23691;52.486;4.650;2023-03-19T15:57:25;21.20;;;8.60;;
37851;SDS011;23691;52.486;4.650;2023-03-19T15:59:51;18.95;;;8.10;;
37851;SDS011;23691;52.486;4.650;2023-03-19T16:04:53;23.23;;;8.70;;
37851;SDS011;23691;52.486;4.650;2023-03-19T16:07:20;21.00;;;8.65;;
37851;SDS011;23691;52.486;4.650;2023-03-19T16:09:51;27.67;;;9.00;;
37851;SDS011;23691;52.486;4.650;2023-03-19T16:12:38;29.20;;;8.35;;
37851;SDS011;23691;52.486;4.650;2023-03-19T16:17:48;20.80;;;7.68;;
37851;SDS011;23691;52.486;4.650;2023-03-19T16:20:13;19.95;;;7.05;;
37851;SDS011;23691;52.486;4.650;2023-03-19T16:22:39;19.52;;;8.18;;
37851;SDS011;23691;52.486;4.650;2023-03-19T16:25:16;20.90;;;9.48;;
37851;SDS011;23691;52.486;4.650;2023-03-19T16:27:43;22.83;;;9.27;;
37851;SDS011;23691;52.486;4.650;2023-03-19T16:30:23;20.70;;;8.18;;
37851;SDS011;23691;52.486;4.650;2023-03-19T16:33:00;21.73;;;8.20;;
37851;SDS011;23691;52.486;4.650;2023-03-19T16:35:30;25.98;;;6.35;;
37851;SDS011;23691;52.486;4.650;2023-03-19T16:40:44;35.58;;;10.55;;
37851;SDS011;23691;52.486;4.650;2023-03-19T16:43:16;30.63;;;10.45;;
37851;SDS011;23691;52.486;4.650;2023-03-19T16:45:43;25.08;;;8.00;;
37851;SDS011;23691;52.486;4.650;2023-03-19T16:48:09;20.83;;;8.40;;
37851;SDS011;23691;52.486;4.650;2023-03-19T16:50:38;24.50;;;8.45;;
37851;SDS011;23691;52.486;4.650;2023-03-19T16:53:38;20.20;;;6.78;;
37851;SDS011;23691;52.486;4.650;2023-03-19T16:55:56;15.60;;;5.45;;
37851;SDS011;23691;52.486;4.650;2023-03-19T17:01:03;15.38;;;5.78;;
37851;SDS011;23691;52.486;4.650;2023-03-19T17:03:33;17.27;;;6.68;;
37851;SDS011;23691;52.486;4.650;2023-03-19T17:05:59;15.00;;;6.30;;
37851;SDS011;23691;52.486;4.650;2023-03-19T17:08:24;11.27;;;4.97;;
37851;SDS011;23691;52.486;4.650;2023-03-19T17:10:50;12.50;;;4.47;;
37851;SDS011;23691;52.486;4.650;2023-03-19T17:13:19;10.18;;;4.18;;
37851;SDS011;23691;52.486;4.650;2023-03-19T17:15:47;11.15;;;4.78;;
37851;SDS011;23691;52.486;4.650;2023-03-19T17:18:18;12.53;;;4.57;;
37851;SDS011;23691;52.486;4.650;2023-03-19T17:20:50;9.95;;;4.50;;
37851;SDS011;23691;52.486;4.650;2023-03-19T17:23:18;11.90;;;4.60;;
37851;SDS011;23691;52.486;4.650;2023-03-19T17:25:48;9.80;;;3.80;;
37851;SDS011;23691;52.486;4.650;2023-03-19T17:28:14;14.23;;;4.55;;